Hollister, Wisconsin
Current Conditions -  °F | °C
As of 12:35 AM on Wednesday 28 Jan 2015 (Local Time) from KAIG Reporting Station
Overcast Overcast  
Wind Chill: -11°   Ceiling: 1200
Heat Index: -6°   Visibility: 10mi
Dew Point: -8°   Wind: 6mph
Humidity: 89%   Direction: 170°S
Pressure: 30.18"   Gusts: NA
Location:  45.261°N, 88.731°W
Report Text: KAIG 280635Z AUTO 17005KT 10SM OVC012 M06/M08 A3018 RMK AO2 T10631078
Loading
Personal Weather Stations






























Interactive Weather Map New forecast layout! Learn more

10-Day Weather Forecast

Advertisements
Track Severe Weather on mobile